sensor_id;sensor_type;location;lat;lon;timestamp;P1;durP1;ratioP1;P2;durP2;ratioP2
47856;SDS011;33618;49.972;8.242;2024-02-28T00:00:05;23.52;;;13.70;;
47856;SDS011;33618;49.972;8.242;2024-02-28T00:02:56;18.45;;;9.02;;
47856;SDS011;33618;49.972;8.242;2024-02-28T00:05:23;21.17;;;9.15;;
47856;SDS011;33618;49.972;8.242;2024-02-28T00:07:49;16.17;;;8.27;;
47856;SDS011;33618;49.972;8.242;2024-02-28T00:10:19;22.65;;;8.85;;
47856;SDS011;33618;49.972;8.242;2024-02-28T00:12:46;18.58;;;9.05;;
47856;SDS011;33618;49.972;8.242;2024-02-28T00:15:13;15.75;;;7.80;;
47856;SDS011;33618;49.972;8.242;2024-02-28T00:17:43;14.70;;;7.40;;
47856;SDS011;33618;49.972;8.242;2024-02-28T00:20:10;18.00;;;9.48;;
47856;SDS011;33618;49.972;8.242;2024-02-28T00:22:38;25.75;;;12.50;;
47856;SDS011;33618;49.972;8.242;2024-02-28T00:25:05;17.52;;;8.15;;
47856;SDS011;33618;49.972;8.242;2024-02-28T00:27:33;20.35;;;9.45;;
47856;SDS011;33618;49.972;8.242;2024-02-28T00:30:01;18.35;;;9.50;;
47856;SDS011;33618;49.972;8.242;2024-02-28T00:32:51;18.55;;;9.35;;
47856;SDS011;33618;49.972;8.242;2024-02-28T00:35:18;25.23;;;12.68;;
47856;SDS011;33618;49.972;8.242;2024-02-28T00:37:54;22.92;;;10.20;;
47856;SDS011;33618;49.972;8.242;2024-02-28T00:40:21;19.70;;;9.80;;
47856;SDS011;33618;49.972;8.242;2024-02-28T00:42:47;23.45;;;11.82;;
47856;SDS011;33618;49.972;8.242;2024-02-28T00:45:14;21.77;;;11.63;;
47856;SDS011;33618;49.972;8.242;2024-02-28T00:48:06;22.42;;;10.23;;
47856;SDS011;33618;49.972;8.242;2024-02-28T00:50:33;25.83;;;14.27;;
47856;SDS011;33618;49.972;8.242;2024-02-28T00:52:59;20.30;;;9.50;;
47856;SDS011;33618;49.972;8.242;2024-02-28T00:55:32;20.92;;;9.40;;
47856;SDS011;33618;49.972;8.242;2024-02-28T00:57:59;27.80;;;10.25;;
47856;SDS011;33618;49.972;8.242;2024-02-28T01:00:26;23.35;;;9.90;;
47856;SDS011;33618;49.972;8.242;2024-02-28T01:02:53;20.92;;;9.52;;
47856;SDS011;33618;49.972;8.242;2024-02-28T01:05:19;25.45;;;10.13;;
47856;SDS011;33618;49.972;8.242;2024-02-28T01:07:46;14.38;;;8.13;;
47856;SDS011;33618;49.972;8.242;2024-02-28T01:10:13;18.02;;;8.60;;
47856;SDS011;33618;49.972;8.242;2024-02-28T01:12:40;14.02;;;7.25;;
47856;SDS011;33618;49.972;8.242;2024-02-28T01:15:07;18.73;;;7.90;;
47856;SDS011;33618;49.972;8.242;2024-02-28T01:17:57;17.08;;;7.53;;
47856;SDS011;33618;49.972;8.242;2024-02-28T01:20:25;19.63;;;9.07;;
47856;SDS011;33618;49.972;8.242;2024-02-28T01:22:52;19.92;;;8.93;;
47856;SDS011;33618;49.972;8.242;2024-02-28T01:25:19;15.30;;;7.95;;
47856;SDS011;33618;49.972;8.242;2024-02-28T01:27:45;18.67;;;8.23;;
47856;SDS011;33618;49.972;8.242;2024-02-28T01:30:15;15.50;;;7.93;;
47856;SDS011;33618;49.972;8.242;2024-02-28T01:32:42;19.58;;;8.52;;
47856;SDS011;33618;49.972;8.242;2024-02-28T01:35:09;21.63;;;8.65;;
47856;SDS011;33618;49.972;8.242;2024-02-28T01:37:36;21.98;;;9.68;;
47856;SDS011;33618;49.972;8.242;2024-02-28T01:40:03;17.65;;;8.20;;
47856;SDS011;33618;49.972;8.242;2024-02-28T01:42:30;21.70;;;9.38;;
47856;SDS011;33618;49.972;8.242;2024-02-28T01:44:57;20.48;;;9.32;;
47856;SDS011;33618;49.972;8.242;2024-02-28T01:47:24;16.40;;;7.85;;
47856;SDS011;33618;49.972;8.242;2024-02-28T01:49:51;19.77;;;8.70;;
47856;SDS011;33618;49.972;8.242;2024-02-28T01:52:20;21.60;;;11.65;;
47856;SDS011;33618;49.972;8.242;2024-02-28T01:54:48;16.95;;;8.43;;
47856;SDS011;33618;49.972;8.242;2024-02-28T01:57:15;15.75;;;8.07;;
47856;SDS011;33618;49.972;8.242;2024-02-28T02:00:07;21.17;;;8.60;;
47856;SDS011;33618;49.972;8.242;2024-02-28T02:02:37;20.20;;;7.28;;
47856;SDS011;33618;49.972;8.242;2024-02-28T02:05:04;17.33;;;8.73;;
47856;SDS011;33618;49.972;8.242;2024-02-28T02:07:31;15.55;;;7.13;;
47856;SDS011;33618;49.972;8.242;2024-02-28T02:09:58;12.73;;;7.13;;
47856;SDS011;33618;49.972;8.242;2024-02-28T02:12:24;20.73;;;8.00;;
47856;SDS011;33618;49.972;8.242;2024-02-28T02:14:51;20.35;;;9.48;;
47856;SDS011;33618;49.972;8.242;2024-02-28T02:17:18;20.98;;;8.85;;
47856;SDS011;33618;49.972;8.242;2024-02-28T02:19:45;21.58;;;9.43;;
47856;SDS011;33618;49.972;8.242;2024-02-28T02:22:13;17.85;;;7.93;;
47856;SDS011;33618;49.972;8.242;2024-02-28T02:25:05;17.92;;;7.57;;
47856;SDS011;33618;49.972;8.242;2024-02-28T02:27:57;16.13;;;7.25;;
47856;SDS011;33618;49.972;8.242;2024-02-28T02:30:23;20.70;;;9.45;;
47856;SDS011;33618;49.972;8.242;2024-02-28T02:32:50;17.88;;;8.48;;
47856;SDS011;33618;49.972;8.242;2024-02-28T02:35:17;20.30;;;8.48;;
47856;SDS011;33618;49.972;8.242;2024-02-28T02:37:44;17.65;;;8.45;;
47856;SDS011;33618;49.972;8.242;2024-02-28T02:40:14;21.75;;;9.23;;
47856;SDS011;33618;49.972;8.242;2024-02-28T02:42:41;20.85;;;8.40;;
47856;SDS011;33618;49.972;8.242;2024-02-28T02:45:08;15.38;;;8.88;;
47856;SDS011;33618;49.972;8.242;2024-02-28T02:47:59;21.13;;;9.02;;
47856;SDS011;33618;49.972;8.242;2024-02-28T02:50:50;17.92;;;8.93;;
47856;SDS011;33618;49.972;8.242;2024-02-28T02:53:17;19.48;;;9.20;;
47856;SDS011;33618;49.972;8.242;2024-02-28T02:55:45;13.88;;;7.70;;
47856;SDS011;33618;49.972;8.242;2024-02-28T02:58:12;16.98;;;8.45;;
47856;SDS011;33618;49.972;8.242;2024-02-28T03:01:02;17.85;;;8.50;;
47856;SDS011;33618;49.972;8.242;2024-02-28T03:03:53;17.00;;;8.13;;
47856;SDS011;33618;49.972;8.242;2024-02-28T03:06:20;17.95;;;7.55;;
47856;SDS011;33618;49.972;8.242;2024-02-28T03:08:52;14.30;;;6.88;;
47856;SDS011;33618;49.972;8.242;2024-02-28T03:11:18;16.00;;;7.43;;
47856;SDS011;33618;49.972;8.242;2024-02-28T03:13:45;15.80;;;7.63;;
47856;SDS011;33618;49.972;8.242;2024-02-28T03:16:12;14.18;;;7.50;;
47856;SDS011;33618;49.972;8.242;2024-02-28T03:18:39;14.88;;;7.68;;
47856;SDS011;33618;49.972;8.242;2024-02-28T03:21:05;17.25;;;7.05;;
47856;SDS011;33618;49.972;8.242;2024-02-28T03:23:32;15.93;;;7.30;;
47856;SDS011;33618;49.972;8.242;2024-02-28T03:25:59;20.33;;;9.05;;
47856;SDS011;33618;49.972;8.242;2024-02-28T03:28:26;19.77;;;9.23;;
47856;SDS011;33618;49.972;8.242;2024-02-28T03:30:53;15.20;;;7.28;;
47856;SDS011;33618;49.972;8.242;2024-02-28T03:33:20;19.27;;;8.45;;
47856;SDS011;33618;49.972;8.242;2024-02-28T03:35:46;16.98;;;7.55;;
47856;SDS011;33618;49.972;8.242;2024-02-28T03:38:13;21.23;;;8.70;;
47856;SDS011;33618;49.972;8.242;2024-02-28T03:40:40;16.95;;;8.45;;
47856;SDS011;33618;49.972;8.242;2024-02-28T03:43:07;22.95;;;8.45;;
47856;SDS011;33618;49.972;8.242;2024-02-28T03:45:36;16.13;;;8.07;;
47856;SDS011;33618;49.972;8.242;2024-02-28T03:48:05;14.98;;;7.70;;
47856;SDS011;33618;49.972;8.242;2024-02-28T03:50:32;14.85;;;7.55;;
47856;SDS011;33618;49.972;8.242;2024-02-28T03:52:59;17.83;;;8.15;;
47856;SDS011;33618;49.972;8.242;2024-02-28T03:55:25;13.55;;;7.63;;
47856;SDS011;33618;49.972;8.242;2024-02-28T03:57:52;22.55;;;9.52;;
47856;SDS011;33618;49.972;8.242;2024-02-28T04:00:21;18.75;;;8.75;;
47856;SDS011;33618;49.972;8.242;2024-02-28T04:02:48;19.52;;;8.60;;
47856;SDS011;33618;49.972;8.242;2024-02-28T04:05:14;16.27;;;7.65;;
47856;SDS011;33618;49.972;8.242;2024-02-28T04:07:43;15.13;;;8.15;;
47856;SDS011;33618;49.972;8.242;2024-02-28T04:10:10;19.25;;;8.73;;
47856;SDS011;33618;49.972;8.242;2024-02-28T04:12:37;19.35;;;7.07;;
47856;SDS011;33618;49.972;8.242;2024-02-28T04:15:04;16.88;;;7.72;;
47856;SDS011;33618;49.972;8.242;2024-02-28T04:17:31;19.77;;;7.75;;
47856;SDS011;33618;49.972;8.242;2024-02-28T04:19:58;15.98;;;8.38;;
47856;SDS011;33618;49.972;8.242;2024-02-28T04:22:48;15.38;;;7.78;;
47856;SDS011;33618;49.972;8.242;2024-02-28T04:25:15;19.60;;;8.30;;
47856;SDS011;33618;49.972;8.242;2024-02-28T04:28:06;18.25;;;8.73;;
47856;SDS011;33618;49.972;8.242;2024-02-28T04:30:58;10.05;;;6.10;;
47856;SDS011;33618;49.972;8.242;2024-02-28T04:33:33;21.08;;;7.38;;
47856;SDS011;33618;49.972;8.242;2024-02-28T04:36:00;13.65;;;7.18;;
47856;SDS011;33618;49.972;8.242;2024-02-28T04:38:26;16.73;;;7.80;;
47856;SDS011;33618;49.972;8.242;2024-02-28T04:40:53;14.27;;;7.97;;
47856;SDS011;33618;49.972;8.242;2024-02-28T04:43:20;15.18;;;7.30;;
47856;SDS011;33618;49.972;8.242;2024-02-28T04:45:46;19.85;;;8.60;;
47856;SDS011;33618;49.972;8.242;2024-02-28T04:48:37;17.80;;;7.75;;
47856;SDS011;33618;49.972;8.242;2024-02-28T04:51:09;16.63;;;7.22;;
47856;SDS011;33618;49.972;8.242;2024-02-28T04:54:01;19.10;;;8.32;;
47856;SDS011;33618;49.972;8.242;2024-02-28T04:56:27;12.10;;;6.80;;
47856;SDS011;33618;49.972;8.242;2024-02-28T04:58:54;20.42;;;8.65;;
47856;SDS011;33618;49.972;8.242;2024-02-28T05:01:21;18.65;;;8.13;;
47856;SDS011;33618;49.972;8.242;2024-02-28T05:03:48;17.98;;;8.27;;
47856;SDS011;33618;49.972;8.242;2024-02-28T05:06:15;20.55;;;8.65;;
47856;SDS011;33618;49.972;8.242;2024-02-28T05:08:42;20.15;;;8.77;;
47856;SDS011;33618;49.972;8.242;2024-02-28T05:11:09;18.10;;;7.60;;
47856;SDS011;33618;49.972;8.242;2024-02-28T05:13:36;17.23;;;8.00;;
47856;SDS011;33618;49.972;8.242;2024-02-28T05:16:03;17.83;;;7.53;;
47856;SDS011;33618;49.972;8.242;2024-02-28T05:18:29;17.77;;;8.63;;
47856;SDS011;33618;49.972;8.242;2024-02-28T05:20:56;12.95;;;7.90;;
47856;SDS011;33618;49.972;8.242;2024-02-28T05:23:23;14.63;;;7.72;;
47856;SDS011;33618;49.972;8.242;2024-02-28T05:25:50;18.90;;;7.95;;
47856;SDS011;33618;49.972;8.242;2024-02-28T05:28:17;13.35;;;6.72;;
47856;SDS011;33618;49.972;8.242;2024-02-28T05:30:44;13.77;;;7.40;;
47856;SDS011;33618;49.972;8.242;2024-02-28T05:33:15;22.77;;;9.25;;
47856;SDS011;33618;49.972;8.242;2024-02-28T05:35:42;13.70;;;6.47;;
47856;SDS011;33618;49.972;8.242;2024-02-28T05:38:08;13.80;;;6.95;;
47856;SDS011;33618;49.972;8.242;2024-02-28T05:40:35;13.63;;;6.00;;
47856;SDS011;33618;49.972;8.242;2024-02-28T05:43:02;18.27;;;8.70;;
47856;SDS011;33618;49.972;8.242;2024-02-28T05:45:30;13.88;;;6.43;;
47856;SDS011;33618;49.972;8.242;2024-02-28T05:47:57;14.55;;;7.00;;
47856;SDS011;33618;49.972;8.242;2024-02-28T05:50:24;18.30;;;7.85;;
47856;SDS011;33618;49.972;8.242;2024-02-28T05:52:51;18.42;;;8.35;;
47856;SDS011;33618;49.972;8.242;2024-02-28T05:55:17;17.50;;;7.63;;
47856;SDS011;33618;49.972;8.242;2024-02-28T05:57:44;21.98;;;7.90;;
47856;SDS011;33618;49.972;8.242;2024-02-28T06:00:11;11.90;;;5.78;;
47856;SDS011;33618;49.972;8.242;2024-02-28T06:02:40;17.83;;;7.25;;
47856;SDS011;33618;49.972;8.242;2024-02-28T06:05:08;13.32;;;6.97;;
47856;SDS011;33618;49.972;8.242;2024-02-28T06:07:35;25.52;;;7.40;;
47856;SDS011;33618;49.972;8.242;2024-02-28T06:10:01;12.82;;;6.80;;
47856;SDS011;33618;49.972;8.242;2024-02-28T06:12:52;12.27;;;6.70;;
47856;SDS011;33618;49.972;8.242;2024-02-28T06:15:20;11.90;;;5.70;;
47856;SDS011;33618;49.972;8.242;2024-02-28T06:17:47;17.35;;;6.60;;
47856;SDS011;33618;49.972;8.242;2024-02-28T06:20:14;9.82;;;6.03;;
47856;SDS011;33618;49.972;8.242;2024-02-28T06:22:41;13.77;;;6.82;;
47856;SDS011;33618;49.972;8.242;2024-02-28T06:25:07;16.65;;;7.88;;
47856;SDS011;33618;49.972;8.242;2024-02-28T06:27:43;22.33;;;9.27;;
47856;SDS011;33618;49.972;8.242;2024-02-28T06:30:11;15.13;;;7.07;;
47856;SDS011;33618;49.972;8.242;2024-02-28T06:32:41;17.77;;;7.47;;
47856;SDS011;33618;49.972;8.242;2024-02-28T06:35:08;17.52;;;8.07;;
47856;SDS011;33618;49.972;8.242;2024-02-28T06:37:35;21.42;;;7.68;;
47856;SDS011;33618;49.972;8.242;2024-02-28T06:40:05;17.08;;;8.18;;
47856;SDS011;33618;49.972;8.242;2024-02-28T06:42:35;25.25;;;7.82;;
47856;SDS011;33618;49.972;8.242;2024-02-28T06:45:03;17.58;;;7.75;;
47856;SDS011;33618;49.972;8.242;2024-02-28T06:47:30;16.90;;;8.13;;
47856;SDS011;33618;49.972;8.242;2024-02-28T06:50:22;15.02;;;8.23;;
47856;SDS011;33618;49.972;8.242;2024-02-28T06:52:49;18.80;;;7.75;;
47856;SDS011;33618;49.972;8.242;2024-02-28T06:55:16;16.42;;;8.23;;
47856;SDS011;33618;49.972;8.242;2024-02-28T06:57:43;21.77;;;8.85;;
47856;SDS011;33618;49.972;8.242;2024-02-28T07:00:10;21.52;;;8.98;;
47856;SDS011;33618;49.972;8.242;2024-02-28T07:03:09;19.50;;;8.00;;
47856;SDS011;33618;49.972;8.242;2024-02-28T07:05:36;13.82;;;7.05;;
47856;SDS011;33618;49.972;8.242;2024-02-28T07:08:02;16.40;;;7.65;;
47856;SDS011;33618;49.972;8.242;2024-02-28T07:10:29;18.98;;;8.23;;
47856;SDS011;33618;49.972;8.242;2024-02-28T07:12:56;19.48;;;8.40;;
47856;SDS011;33618;49.972;8.242;2024-02-28T07:15:23;23.27;;;9.15;;
47856;SDS011;33618;49.972;8.242;2024-02-28T07:17:50;21.48;;;9.30;;
47856;SDS011;33618;49.972;8.242;2024-02-28T07:20:17;23.38;;;8.38;;
47856;SDS011;33618;49.972;8.242;2024-02-28T07:22:44;21.00;;;9.05;;
47856;SDS011;33618;49.972;8.242;2024-02-28T07:25:11;22.33;;;9.05;;
47856;SDS011;33618;49.972;8.242;2024-02-28T07:27:37;21.85;;;9.20;;
47856;SDS011;33618;49.972;8.242;2024-02-28T07:30:04;18.65;;;7.40;;
47856;SDS011;33618;49.972;8.242;2024-02-28T07:33:21;17.63;;;8.07;;
47856;SDS011;33618;49.972;8.242;2024-02-28T07:35:48;14.23;;;7.32;;
47856;SDS011;33618;49.972;8.242;2024-02-28T07:38:18;20.10;;;8.00;;
47856;SDS011;33618;49.972;8.242;2024-02-28T07:40:47;19.92;;;9.10;;
47856;SDS011;33618;49.972;8.242;2024-02-28T07:43:14;20.92;;;8.30;;
47856;SDS011;33618;49.972;8.242;2024-02-28T07:45:41;24.95;;;8.38;;
47856;SDS011;33618;49.972;8.242;2024-02-28T07:48:08;27.65;;;9.48;;
47856;SDS011;33618;49.972;8.242;2024-02-28T07:50:35;23.10;;;8.68;;
47856;SDS011;33618;49.972;8.242;2024-02-28T07:53:02;25.33;;;8.20;;
47856;SDS011;33618;49.972;8.242;2024-02-28T07:55:28;19.33;;;8.45;;
47856;SDS011;33618;49.972;8.242;2024-02-28T07:57:55;21.70;;;9.35;;
47856;SDS011;33618;49.972;8.242;2024-02-28T08:00:22;17.23;;;7.95;;
47856;SDS011;33618;49.972;8.242;2024-02-28T08:02:49;18.23;;;7.70;;
47856;SDS011;33618;49.972;8.242;2024-02-28T08:05:15;22.95;;;9.50;;
47856;SDS011;33618;49.972;8.242;2024-02-28T08:07:44;16.33;;;8.60;;
47856;SDS011;33618;49.972;8.242;2024-02-28T08:10:10;23.70;;;9.15;;
47856;SDS011;33618;49.972;8.242;2024-02-28T08:12:37;24.40;;;9.32;;
47856;SDS011;33618;49.972;8.242;2024-02-28T08:15:04;22.63;;;10.32;;
47856;SDS011;33618;49.972;8.242;2024-02-28T08:17:31;20.15;;;8.68;;
47856;SDS011;33618;49.972;8.242;2024-02-28T08:19:58;21.85;;;9.30;;
47856;SDS011;33618;49.972;8.242;2024-02-28T08:22:30;19.40;;;8.15;;
47856;SDS011;33618;49.972;8.242;2024-02-28T08:24:57;17.75;;;9.05;;
47856;SDS011;33618;49.972;8.242;2024-02-28T08:27:24;22.42;;;8.70;;
47856;SDS011;33618;49.972;8.242;2024-02-28T08:29:58;47.08;;;18.05;;
47856;SDS011;33618;49.972;8.242;2024-02-28T08:32:24;46.78;;;16.10;;
47856;SDS011;33618;49.972;8.242;2024-02-28T08:34:51;30.83;;;11.60;;
47856;SDS011;33618;49.972;8.242;2024-02-28T08:37:20;27.80;;;15.00;;
47856;SDS011;33618;49.972;8.242;2024-02-28T08:39:47;31.90;;;19.05;;
47856;SDS011;33618;49.972;8.242;2024-02-28T08:42:14;26.23;;;14.02;;
47856;SDS011;33618;49.972;8.242;2024-02-28T08:44:41;32.05;;;21.92;;
47856;SDS011;33618;49.972;8.242;2024-02-28T08:47:08;27.83;;;20.23;;
47856;SDS011;33618;49.972;8.242;2024-02-28T08:49:35;30.60;;;23.75;;
47856;SDS011;33618;49.972;8.242;2024-02-28T08:52:02;26.98;;;14.07;;
47856;SDS011;33618;49.972;8.242;2024-02-28T08:54:29;29.50;;;22.45;;
47856;SDS011;33618;49.972;8.242;2024-02-28T08:56:56;30.50;;;22.33;;
47856;SDS011;33618;49.972;8.242;2024-02-28T08:59:29;29.17;;;22.40;;
47856;SDS011;33618;49.972;8.242;2024-02-28T09:01:56;30.40;;;23.33;;
47856;SDS011;33618;49.972;8.242;2024-02-28T09:04:22;29.33;;;22.65;;
47856;SDS011;33618;49.972;8.242;2024-02-28T09:06:49;28.98;;;16.35;;
47856;SDS011;33618;49.972;8.242;2024-02-28T09:09:16;29.33;;;23.13;;
47856;SDS011;33618;49.972;8.242;2024-02-28T09:11:43;28.15;;;22.83;;
47856;SDS011;33618;49.972;8.242;2024-02-28T09:14:10;28.38;;;22.58;;
47856;SDS011;33618;49.972;8.242;2024-02-28T09:16:36;29.17;;;23.23;;
47856;SDS011;33618;49.972;8.242;2024-02-28T09:19:03;28.70;;;23.00;;
47856;SDS011;33618;49.972;8.242;2024-02-28T09:21:32;29.20;;;22.60;;
47856;SDS011;33618;49.972;8.242;2024-02-28T09:23:59;28.80;;;22.65;;
47856;SDS011;33618;49.972;8.242;2024-02-28T09:26:27;25.48;;;14.85;;
47856;SDS011;33618;49.972;8.242;2024-02-28T09:28:54;28.95;;;21.83;;
47856;SDS011;33618;49.972;8.242;2024-02-28T09:31:20;29.85;;;21.90;;
47856;SDS011;33618;49.972;8.242;2024-02-28T09:33:47;27.48;;;21.02;;
47856;SDS011;33618;49.972;8.242;2024-02-28T09:36:15;30.33;;;20.80;;
47856;SDS011;33618;49.972;8.242;2024-02-28T09:38:42;28.48;;;21.00;;
47856;SDS011;33618;49.972;8.242;2024-02-28T09:41:14;26.83;;;21.20;;
47856;SDS011;33618;49.972;8.242;2024-02-28T09:43:41;26.23;;;20.88;;
47856;SDS011;33618;49.972;8.242;2024-02-28T09:46:08;26.40;;;20.23;;
47856;SDS011;33618;49.972;8.242;2024-02-28T09:48:42;23.70;;;20.17;;
47856;SDS011;33618;49.972;8.242;2024-02-28T09:51:11;22.05;;;12.60;;
47856;SDS011;33618;49.972;8.242;2024-02-28T09:53:39;24.95;;;20.25;;
47856;SDS011;33618;49.972;8.242;2024-02-28T09:56:09;24.52;;;19.88;;
47856;SDS011;33618;49.972;8.242;2024-02-28T09:58:41;23.67;;;19.17;;
47856;SDS011;33618;49.972;8.242;2024-02-28T10:01:09;24.95;;;19.88;;
47856;SDS011;33618;49.972;8.242;2024-02-28T10:03:39;25.48;;;19.77;;
47856;SDS011;33618;49.972;8.242;2024-02-28T10:06:09;23.90;;;19.48;;
47856;SDS011;33618;49.972;8.242;2024-02-28T10:08:38;28.40;;;10.13;;
47856;SDS011;33618;49.972;8.242;2024-02-28T10:11:05;23.67;;;18.80;;
47856;SDS011;33618;49.972;8.242;2024-02-28T10:13:37;23.67;;;18.90;;
47856;SDS011;33618;49.972;8.242;2024-02-28T10:16:06;23.45;;;19.00;;
47856;SDS011;33618;49.972;8.242;2024-02-28T10:18:33;25.50;;;19.58;;
47856;SDS011;33618;49.972;8.242;2024-02-28T10:21:24;21.63;;;17.25;;
47856;SDS011;33618;49.972;8.242;2024-02-28T10:23:52;21.55;;;16.98;;
47856;SDS011;33618;49.972;8.242;2024-02-28T10:26:19;20.83;;;16.83;;
47856;SDS011;33618;49.972;8.242;2024-02-28T10:29:10;24.52;;;17.15;;
47856;SDS011;33618;49.972;8.242;2024-02-28T10:31:37;21.50;;;15.48;;
47856;SDS011;33618;49.972;8.242;2024-02-28T10:34:04;20.23;;;16.08;;
47856;SDS011;33618;49.972;8.242;2024-02-28T10:36:33;19.55;;;14.85;;
47856;SDS011;33618;49.972;8.242;2024-02-28T10:39:00;20.17;;;15.98;;
47856;SDS011;33618;49.972;8.242;2024-02-28T10:41:28;22.30;;;15.18;;
47856;SDS011;33618;49.972;8.242;2024-02-28T10:43:54;20.05;;;16.13;;
47856;SDS011;33618;49.972;8.242;2024-02-28T10:46:21;18.10;;;15.25;;
47856;SDS011;33618;49.972;8.242;2024-02-28T10:49:02;16.20;;;14.18;;
47856;SDS011;33618;49.972;8.242;2024-02-28T10:51:53;16.58;;;14.45;;
47856;SDS011;33618;49.972;8.242;2024-02-28T10:54:24;17.05;;;13.57;;
47856;SDS011;33618;49.972;8.242;2024-02-28T10:56:51;19.08;;;16.05;;
47856;SDS011;33618;49.972;8.242;2024-02-28T10:59:19;20.20;;;16.80;;
47856;SDS011;33618;49.972;8.242;2024-02-28T11:01:49;18.15;;;15.57;;
47856;SDS011;33618;49.972;8.242;2024-02-28T11:04:40;17.77;;;9.88;;
47856;SDS011;33618;49.972;8.242;2024-02-28T11:07:08;17.92;;;15.70;;
47856;SDS011;33618;49.972;8.242;2024-02-28T11:09:35;18.10;;;15.32;;
47856;SDS011;33618;49.972;8.242;2024-02-28T11:12:06;21.17;;;16.17;;
47856;SDS011;33618;49.972;8.242;2024-02-28T11:14:55;21.70;;;17.75;;
47856;SDS011;33618;49.972;8.242;2024-02-28T11:17:26;22.23;;;17.45;;
47856;SDS011;33618;49.972;8.242;2024-02-28T11:19:57;20.67;;;16.85;;
47856;SDS011;33618;49.972;8.242;2024-02-28T11:22:28;17.17;;;15.02;;
47856;SDS011;33618;49.972;8.242;2024-02-28T11:24:55;17.08;;;14.43;;
47856;SDS011;33618;49.972;8.242;2024-02-28T11:27:22;19.15;;;15.25;;
47856;SDS011;33618;49.972;8.242;2024-02-28T11:29:50;19.25;;;16.40;;
47856;SDS011;33618;49.972;8.242;2024-02-28T11:32:16;23.67;;;17.38;;
47856;SDS011;33618;49.972;8.242;2024-02-28T11:34:43;19.33;;;15.88;;
47856;SDS011;33618;49.972;8.242;2024-02-28T11:37:11;18.42;;;16.23;;
47856;SDS011;33618;49.972;8.242;2024-02-28T11:40:01;18.85;;;16.25;;
47856;SDS011;33618;49.972;8.242;2024-02-28T11:42:54;20.30;;;16.33;;
47856;SDS011;33618;49.972;8.242;2024-02-28T11:45:21;18.60;;;15.65;;
47856;SDS011;33618;49.972;8.242;2024-02-28T11:47:48;17.40;;;15.50;;
47856;SDS011;33618;49.972;8.242;2024-02-28T11:50:15;19.80;;;15.88;;
47856;SDS011;33618;49.972;8.242;2024-02-28T11:52:44;19.85;;;15.57;;
47856;SDS011;33618;49.972;8.242;2024-02-28T11:55:11;18.23;;;15.77;;
47856;SDS011;33618;49.972;8.242;2024-02-28T11:57:38;17.33;;;15.38;;
47856;SDS011;33618;49.972;8.242;2024-02-28T12:00:06;19.30;;;15.27;;
47856;SDS011;33618;49.972;8.242;2024-02-28T12:02:35;17.95;;;15.45;;
47856;SDS011;33618;49.972;8.242;2024-02-28T12:05:02;18.15;;;15.30;;
47856;SDS011;33618;49.972;8.242;2024-02-28T12:07:31;16.88;;;14.25;;
47856;SDS011;33618;49.972;8.242;2024-02-28T12:10:00;18.40;;;14.93;;
47856;SDS011;33618;49.972;8.242;2024-02-28T12:12:27;17.42;;;15.13;;
47856;SDS011;33618;49.972;8.242;2024-02-28T12:14:58;17.83;;;15.00;;
47856;SDS011;33618;49.972;8.242;2024-02-28T12:17:31;16.52;;;14.73;;
47856;SDS011;33618;49.972;8.242;2024-02-28T12:19:59;18.98;;;15.18;;
47856;SDS011;33618;49.972;8.242;2024-02-28T12:22:26;16.83;;;14.82;;
47856;SDS011;33618;49.972;8.242;2024-02-28T12:24:54;18.65;;;14.60;;
47856;SDS011;33618;49.972;8.242;2024-02-28T12:27:23;15.05;;;13.45;;
47856;SDS011;33618;49.972;8.242;2024-02-28T12:29:50;14.98;;;13.18;;
47856;SDS011;33618;49.972;8.242;2024-02-28T12:32:17;14.60;;;12.65;;
47856;SDS011;33618;49.972;8.242;2024-02-28T12:34:44;13.77;;;12.38;;
47856;SDS011;33618;49.972;8.242;2024-02-28T12:37:11;14.32;;;12.27;;
47856;SDS011;33618;49.972;8.242;2024-02-28T12:39:38;13.52;;;12.13;;
47856;SDS011;33618;49.972;8.242;2024-02-28T12:42:05;13.65;;;12.25;;
47856;SDS011;33618;49.972;8.242;2024-02-28T12:44:33;12.50;;;11.20;;
47856;SDS011;33618;49.972;8.242;2024-02-28T12:47:00;14.68;;;12.65;;
47856;SDS011;33618;49.972;8.242;2024-02-28T12:49:29;14.93;;;13.27;;
47856;SDS011;33618;49.972;8.242;2024-02-28T12:51:56;16.15;;;14.45;;
47856;SDS011;33618;49.972;8.242;2024-02-28T12:54:23;18.00;;;13.90;;
47856;SDS011;33618;49.972;8.242;2024-02-28T12:56:50;15.57;;;13.82;;
47856;SDS011;33618;49.972;8.242;2024-02-28T12:59:17;16.33;;;13.90;;
47856;SDS011;33618;49.972;8.242;2024-02-28T13:01:43;14.45;;;13.00;;
47856;SDS011;33618;49.972;8.242;2024-02-28T13:04:10;15.20;;;13.60;;
47856;SDS011;33618;49.972;8.242;2024-02-28T13:06:37;15.00;;;13.40;;
47856;SDS011;33618;49.972;8.242;2024-02-28T13:09:04;16.13;;;13.68;;
47856;SDS011;33618;49.972;8.242;2024-02-28T13:11:38;15.30;;;12.93;;
47856;SDS011;33618;49.972;8.242;2024-02-28T13:14:06;15.10;;;13.13;;
47856;SDS011;33618;49.972;8.242;2024-02-28T13:16:34;13.98;;;12.07;;
47856;SDS011;33618;49.972;8.242;2024-02-28T13:19:01;14.30;;;11.65;;
47856;SDS011;33618;49.972;8.242;2024-02-28T13:21:28;14.70;;;12.95;;
47856;SDS011;33618;49.972;8.242;2024-02-28T13:23:55;13.52;;;12.13;;
47856;SDS011;33618;49.972;8.242;2024-02-28T13:26:46;12.02;;;10.63;;
47856;SDS011;33618;49.972;8.242;2024-02-28T13:29:13;13.32;;;11.93;;
47856;SDS011;33618;49.972;8.242;2024-02-28T13:31:40;14.07;;;12.68;;
47856;SDS011;33618;49.972;8.242;2024-02-28T13:34:07;13.00;;;11.55;;
47856;SDS011;33618;49.972;8.242;2024-02-28T13:36:34;13.68;;;12.25;;
47856;SDS011;33618;49.972;8.242;2024-02-28T13:39:03;12.52;;;11.30;;
47856;SDS011;33618;49.972;8.242;2024-02-28T13:41:30;14.38;;;12.85;;
47856;SDS011;33618;49.972;8.242;2024-02-28T13:43:56;14.52;;;13.02;;
47856;SDS011;33618;49.972;8.242;2024-02-28T13:46:23;11.80;;;10.60;;
47856;SDS011;33618;49.972;8.242;2024-02-28T13:48:50;11.93;;;10.70;;
47856;SDS011;33618;49.972;8.242;2024-02-28T13:51:17;12.95;;;11.55;;
47856;SDS011;33618;49.972;8.242;2024-02-28T13:53:44;12.55;;;11.25;;
47856;SDS011;33618;49.972;8.242;2024-02-28T13:56:10;13.68;;;12.25;;
47856;SDS011;33618;49.972;8.242;2024-02-28T13:58:37;13.90;;;12.45;;
47856;SDS011;33618;49.972;8.242;2024-02-28T14:01:18;12.35;;;11.15;;
47856;SDS011;33618;49.972;8.242;2024-02-28T14:03:45;13.25;;;11.88;;
47856;SDS011;33618;49.972;8.242;2024-02-28T14:06:12;12.88;;;10.82;;
47856;SDS011;33618;49.972;8.242;2024-02-28T14:08:40;11.55;;;10.35;;
47856;SDS011;33618;49.972;8.242;2024-02-28T14:11:09;12.30;;;10.52;;
47856;SDS011;33618;49.972;8.242;2024-02-28T14:13:36;12.23;;;11.02;;
47856;SDS011;33618;49.972;8.242;2024-02-28T14:16:06;12.77;;;10.77;;
47856;SDS011;33618;49.972;8.242;2024-02-28T14:18:33;12.32;;;11.07;;
47856;SDS011;33618;49.972;8.242;2024-02-28T14:20:59;12.50;;;11.27;;
47856;SDS011;33618;49.972;8.242;2024-02-28T14:23:32;12.15;;;10.57;;
47856;SDS011;33618;49.972;8.242;2024-02-28T14:25:59;11.30;;;10.20;;
47856;SDS011;33618;49.972;8.242;2024-02-28T14:28:25;11.55;;;10.25;;
47856;SDS011;33618;49.972;8.242;2024-02-28T14:30:52;14.32;;;11.73;;
47856;SDS011;33618;49.972;8.242;2024-02-28T14:33:19;12.18;;;10.88;;
47856;SDS011;33618;49.972;8.242;2024-02-28T14:35:46;12.48;;;11.18;;
47856;SDS011;33618;49.972;8.242;2024-02-28T14:38:13;11.30;;;10.20;;
47856;SDS011;33618;49.972;8.242;2024-02-28T14:40:40;11.30;;;10.15;;